Time;durP1;ratioP1;P1;durP2;ratioP2;P2;SDS_P1;SDS_P2;PMS_P1;PMS_P2;Temp;Humidity;BMP_temperature;BMP_pressure;BME280_temperature;BME280_humidity;BME280_pressure;Samples;Min_cycle;Max_cycle;Signal;HPM_P1;HPM_P2
2022/07/12 00:01:10;;;;;;;8.73;4.15;;;;;;;16.84;100.00;102562.72;7370165;19;20014;-77
2022/07/12 00:03:42;;;;;;;7.90;4.13;;;;;;;16.82;100.00;102556.50;7372224;19;20504;-79
2022/07/12 00:06:15;;;;;;;9.00;4.47;;;;;;;16.78;100.00;102559.97;7368903;19;20011;-78
2022/07/12 00:08:45;;;;;;;8.18;3.97;;;;;;;16.73;100.00;102566.97;7369814;19;20010;-79
2022/07/12 00:11:15;;;;;;;7.85;4.20;;;;;;;16.71;100.00;102561.66;7370475;19;20010;-80
2022/07/12 00:13:46;;;;;;;10.35;4.53;;;;;;;16.65;100.00;102562.44;7374004;19;20102;-79
2022/07/12 00:16:16;;;;;;;10.13;4.85;;;;;;;16.64;100.00;102560.66;7370894;19;20533;-79
2022/07/12 00:18:46;;;;;;;8.52;4.25;;;;;;;16.63;100.00;102555.34;7371821;19;20073;-79
2022/07/12 00:21:19;;;;;;;8.40;4.28;;;;;;;16.59;100.00;102557.06;7368122;19;20006;-79
2022/07/12 00:23:51;;;;;;;8.67;4.27;;;;;;;16.56;100.00;102554.34;7371557;19;20368;-78
2022/07/12 00:26:21;;;;;;;9.25;4.25;;;;;;;16.54;100.00;102549.91;7371354;19;20006;-79
2022/07/12 00:28:51;;;;;;;8.82;4.53;;;;;;;16.51;100.00;102545.44;7372323;19;20045;-78
2022/07/12 00:31:21;;;;;;;9.85;4.35;;;;;;;16.48;100.00;102540.09;7371405;19;20478;-78
2022/07/12 00:33:51;;;;;;;9.43;4.93;;;;;;;16.46;100.00;102543.59;7370211;19;20014;-78
2022/07/12 00:36:24;;;;;;;8.00;4.60;;;;;;;16.40;100.00;102547.03;7375831;19;20308;-79
2022/07/12 00:38:56;;;;;;;7.80;4.30;;;;;;;16.38;100.00;102543.47;7376172;19;20007;-78
2022/07/12 00:41:26;;;;;;;7.78;3.95;;;;;;;16.34;100.00;102544.28;7377235;19;20010;-78
2022/07/12 00:43:58;;;;;;;12.85;6.28;;;;;;;16.29;100.00;102538.91;7374615;19;20103;-79
2022/07/12 00:46:29;;;;;;;9.50;4.68;;;;;;;16.24;100.00;102550.28;7379334;19;20015;-80
2022/07/12 00:48:59;;;;;;;10.02;4.82;;;;;;;16.22;100.00;102546.72;7378591;19;20073;-79
2022/07/12 00:51:31;;;;;;;7.38;4.18;;;;;;;16.20;100.00;102553.75;7383466;19;20040;-79
2022/07/12 00:54:02;;;;;;;7.82;4.88;;;;;;;16.20;100.00;102545.78;7375452;19;20253;-79
2022/07/12 00:56:32;;;;;;;11.52;4.70;;;;;;;16.21;100.00;102547.59;7386986;19;20010;-79
2022/07/12 00:59:02;;;;;;;8.48;4.55;;;;;;;16.20;100.00;102544.03;7382128;19;20010;-79
2022/07/12 01:01:32;;;;;;;8.55;4.63;;;;;;;16.19;100.00;102547.56;7381009;19;20014;-80
2022/07/12 01:04:03;;;;;;;8.57;4.65;;;;;;;16.14;100.00;102546.59;7380034;19;20010;-80
2022/07/12 01:06:38;;;;;;;8.68;4.45;;;;;;;16.14;100.00;102540.41;7383266;19;20015;-78
2022/07/12 01:09:10;;;;;;;9.02;4.95;;;;;;;16.11;100.00;102540.34;7385174;19;20015;-78
2022/07/12 01:11:40;;;;;;;8.95;5.22;;;;;;;16.04;100.00;102542.00;7380081;19;20007;-77
2022/07/12 01:14:13;;;;;;;8.57;4.40;;;;;;;16.00;100.00;102533.09;7372035;19;20078;-75
2022/07/12 01:16:43;;;;;;;8.45;4.78;;;;;;;15.98;100.00;102526.88;7372631;19;20041;-76
2022/07/12 01:19:20;;;;;;;9.95;5.15;;;;;;;15.97;100.00;102522.47;7367550;19;20018;-76
2022/07/12 01:22:02;;;;;;;9.75;4.95;;;;;;;15.96;100.00;102517.16;7369919;19;20025;-76
2022/07/12 01:24:36;;;;;;;14.75;5.95;;;;;;;15.93;100.00;102517.97;7377231;19;20256;-77
2022/07/12 01:27:08;;;;;;;9.43;5.45;;;;;;;15.93;100.00;102517.97;7371690;19;20233;-74
2022/07/12 01:29:38;;;;;;;8.32;4.95;;;;;;;15.90;100.00;102517.94;7374259;19;20494;-75
2022/07/12 01:34:56;;;;;;;10.63;5.40;;;;;;;15.86;100.00;102525.78;7371624;19;20095;-75
2022/07/12 01:37:31;;;;;;;10.68;5.60;;;;;;;15.83;100.00;102531.00;7377371;19;20451;-75
2022/07/12 01:40:11;;;;;;;9.52;5.68;;;;;;;15.81;100.00;102532.75;7373843;19;20015;-75
2022/07/12 01:42:43;;;;;;;9.85;5.45;;;;;;;15.78;100.00;102532.69;7372779;19;20014;-76
2022/07/12 01:45:14;;;;;;;8.23;5.10;;;;;;;15.75;100.00;102532.63;7376816;19;20017;-75
2022/07/12 01:47:46;;;;;;;9.50;5.60;;;;;;;15.74;100.00;102541.41;7370131;19;20039;-76
2022/07/12 01:50:20;;;;;;;10.63;5.70;;;;;;;15.68;100.00;102547.47;7370520;19;20090;-77
2022/07/12 01:52:50;;;;;;;10.30;5.68;;;;;;;15.63;100.00;102544.75;7366603;19;20044;-74
2022/07/12 01:55:24;;;;;;;8.10;5.32;;;;;;;15.54;100.00;102544.56;7369025;19;20403;-75
2022/07/12 01:57:59;;;;;;;10.70;4.80;;;;;;;15.49;100.00;102551.50;7371424;19;20048;-76
2022/07/12 02:00:30;;;;;;;9.77;5.38;;;;;;;15.46;100.00;102553.22;7371431;19;20015;-75
2022/07/12 02:03:00;;;;;;;10.27;5.20;;;;;;;15.41;100.00;102561.03;7371358;19;20023;-74
2022/07/12 02:05:30;;;;;;;9.98;4.93;;;;;;;15.40;100.00;102561.00;7370123;19;20066;-75
2022/07/12 02:08:00;;;;;;;8.55;4.82;;;;;;;15.38;100.00;102560.97;7371841;19;20021;-75
2022/07/12 02:10:34;;;;;;;8.88;4.55;;;;;;;15.32;100.00;102559.09;7372237;19;20019;-75
2022/07/12 02:13:05;;;;;;;7.75;3.92;;;;;;;15.30;100.00;102554.63;7372069;19;20027;-76
2022/07/12 02:15:35;;;;;;;11.65;5.30;;;;;;;15.25;100.00;102562.47;7371763;19;20017;-75
2022/07/12 02:18:07;;;;;;;8.68;4.30;;;;;;;15.21;100.00;102557.97;7376080;19;20372;-79
2022/07/12 02:20:42;;;;;;;8.05;4.88;;;;;;;15.20;100.00;102548.25;7374416;19;20094;-80
2022/07/12 02:23:12;;;;;;;7.65;4.38;;;;;;;15.19;100.00;102556.16;7377228;19;20011;-80
2022/07/12 02:25:44;;;;;;;8.43;4.45;;;;;;;15.14;100.00;102566.63;7376138;19;20051;-80
2022/07/12 02:28:15;;;;;;;10.55;5.47;;;;;;;15.18;100.00;102549.97;7373757;19;20039;-80
2022/07/12 02:30:46;;;;;;;8.15;5.00;;;;;;;15.14;100.00;102548.13;7377157;19;20345;-80
2022/07/12 02:33:17;;;;;;;13.73;5.78;;;;;;;15.13;100.00;102538.41;7373221;19;20002;-81
2022/07/12 02:35:50;;;;;;;9.20;5.65;;;;;;;15.13;100.00;102538.41;7375263;19;20047;-79
2022/07/12 02:38:21;;;;;;;12.15;6.75;;;;;;;15.15;100.00;102543.75;7375547;19;20014;-80
2022/07/12 02:40:56;;;;;;;13.57;6.78;;;;;;;15.16;100.00;102556.09;7373071;19;20426;-79
2022/07/12 02:43:28;;;;;;;11.77;6.22;;;;;;;15.13;100.00;102549.00;7367859;19;20663;-81
2022/07/12 02:46:05;;;;;;;11.50;6.22;;;;;;;15.09;100.00;102549.78;7374533;19;20002;-79
2022/07/12 02:48:35;;;;;;;13.10;6.90;;;;;;;15.09;100.00;102552.44;7376070;19;20060;-82
2022/07/12 02:51:08;;;;;;;11.65;6.65;;;;;;;15.07;100.00;102546.22;7375865;19;20039;-80
2022/07/12 02:53:43;;;;;;;11.48;6.03;;;;;;;15.07;100.00;102551.50;7368215;19;20010;-80
2022/07/12 02:56:16;;;;;;;12.13;6.97;;;;;;;15.06;100.00;102555.00;7373451;19;20011;-80
2022/07/12 02:58:46;;;;;;;11.20;6.15;;;;;;;15.04;100.00;102557.59;7376536;19;20374;-80
2022/07/12 03:01:16;;;;;;;10.02;6.85;;;;;;;14.99;100.00;102558.38;7372112;19;20015;-80
2022/07/12 03:03:46;;;;;;;12.18;7.03;;;;;;;14.93;100.00;102555.59;7370661;19;20006;-80
2022/07/12 03:06:16;;;;;;;10.05;5.75;;;;;;;14.87;100.00;102564.25;7374441;19;20019;-80
2022/07/12 03:08:47;;;;;;;12.00;6.75;;;;;;;14.83;100.00;102556.22;7370541;19;20066;-81
2022/07/12 03:11:20;;;;;;;12.07;6.47;;;;;;;14.81;100.00;102555.31;7374158;19;20321;-79
2022/07/12 03:13:50;;;;;;;10.27;6.10;;;;;;;14.77;100.00;102546.41;7373083;19;20705;-80
2022/07/12 03:16:20;;;;;;;9.98;6.07;;;;;;;14.74;100.00;102554.25;7374080;19;20267;-80
2022/07/12 03:18:50;;;;;;;12.13;6.60;;;;;;;14.73;100.00;102550.72;7373623;19;20006;-79
2022/07/12 03:21:23;;;;;;;13.15;6.65;;;;;;;14.72;100.00;102554.22;7375002;19;20023;-79
2022/07/12 03:23:53;;;;;;;9.98;6.35;;;;;;;14.72;100.00;102556.88;7376806;19;20252;-81
2022/07/12 03:26:26;;;;;;;13.13;6.65;;;;;;;14.72;100.00;102553.34;7376807;19;20018;-82
2022/07/12 03:28:56;;;;;;;9.93;6.60;;;;;;;14.72;100.00;102559.50;7375143;19;20011;-80
2022/07/12 03:31:26;;;;;;;11.88;6.53;;;;;;;14.73;100.00;102555.13;7372823;19;20457;-80
2022/07/12 03:33:56;;;;;;;13.35;6.90;;;;;;;14.72;100.00;102556.88;7373408;19;20027;-81
2022/07/12 03:36:26;;;;;;;11.75;6.45;;;;;;;14.72;100.00;102559.50;7370747;19;20113;-80
2022/07/12 03:38:56;;;;;;;13.20;6.57;;;;;;;14.77;100.00;102556.09;7373264;19;20014;-79
2022/07/12 03:41:28;;;;;;;14.85;7.32;;;;;;;14.76;100.00;102560.47;7371624;19;20010;-79
2022/07/12 03:43:58;;;;;;;11.07;6.40;;;;;;;14.77;100.00;102564.00;7370750;19;20047;-80
2022/07/12 03:46:28;;;;;;;11.48;6.40;;;;;;;14.77;100.00;102562.25;7373239;19;20014;-80
2022/07/12 03:48:58;;;;;;;14.25;7.35;;;;;;;14.77;100.00;102564.91;7372753;19;20010;-80
2022/07/12 03:51:28;;;;;;;12.18;7.82;;;;;;;14.79;100.00;102562.31;7372611;19;20010;-80
2022/07/12 03:53:59;;;;;;;13.05;7.55;;;;;;;14.79;100.00;102567.59;7369351;19;20006;-80
2022/07/12 03:59:14;;;;;;;11.73;7.25;;;;;;;14.80;100.00;102566.72;7374037;19;20490;-80
2022/07/12 04:01:44;;;;;;;13.35;6.97;;;;;;;14.82;100.00;102560.63;7372809;19;20048;-79
2022/07/12 04:04:14;;;;;;;13.73;8.00;;;;;;;14.86;100.00;102562.47;7373944;19;20002;-78
2022/07/12 04:06:44;;;;;;;13.13;7.88;;;;;;;14.90;100.00;102556.41;7375420;19;20006;-80
2022/07/12 04:09:14;;;;;;;12.63;7.57;;;;;;;14.96;100.00;102568.88;7373472;19;20035;-80
2022/07/12 04:11:46;;;;;;;12.57;8.27;;;;;;;15.00;100.00;102565.44;7373954;19;20680;-80
2022/07/12 04:14:16;;;;;;;12.90;8.63;;;;;;;15.04;100.00;102567.28;7380048;19;20021;-81
2022/07/12 04:16:46;;;;;;;14.32;7.93;;;;;;;15.08;100.00;102560.31;7377636;19;20047;-80
2022/07/12 04:19:17;;;;;;;15.25;8.55;;;;;;;15.15;100.00;102571.06;7375478;19;20327;-79
2022/07/12 04:21:46;;;;;;;13.85;7.75;;;;;;;15.22;100.00;102567.69;7379111;19;20346;-81
2022/07/12 04:24:19;;;;;;;12.07;7.32;;;;;;;15.26;100.00;102561.63;7382410;19;20003;-80
2022/07/12 04:26:53;;;;;;;13.65;7.50;;;;;;;15.34;100.00;102570.59;7383719;19;20011;-81
2022/07/12 04:29:24;;;;;;;12.35;7.28;;;;;;;15.42;100.00;102567.22;7380551;19;20028;-81
2022/07/12 04:31:54;;;;;;;10.98;7.53;;;;;;;15.50;100.00;102569.16;7382960;19;20031;-81
2022/07/12 04:34:24;;;;;;;14.63;7.93;;;;;;;15.56;100.00;102571.03;7382818;19;20031;-82
2022/07/12 04:36:54;;;;;;;13.52;8.20;;;;;;;15.66;100.00;102570.38;7383024;19;20045;-74
2022/07/12 04:39:24;;;;;;;12.95;8.43;;;;;;;15.74;100.00;102567.88;7367704;19;20024;-75
2022/07/12 04:41:57;;;;;;;13.27;8.82;;;;;;;15.84;100.00;102564.53;7370103;19;20015;-76
2022/07/12 04:44:27;;;;;;;15.43;9.57;;;;;;;15.96;100.00;102570.97;7369542;19;20010;-75
2022/07/12 04:46:57;;;;;;;11.75;7.15;;;;;;;16.10;100.00;102557.09;7367079;19;20011;-74
2022/07/12 04:49:27;;;;;;;13.52;9.05;;;;;;;16.27;100.00;102561.81;7366671;19;20009;-76
2022/07/12 04:51:58;;;;;;;13.02;8.43;;;;;;;16.42;100.00;102561.19;7366155;19;20043;-76
2022/07/12 04:54:27;;;;;;;17.85;10.02;;;;;;;16.51;100.00;102561.34;7361380;19;21051;-75
2022/07/12 04:57:02;;;;;;;14.75;10.13;;;;;;;16.73;100.00;102572.28;7372145;19;20007;-75
2022/07/12 04:59:32;;;;;;;13.38;8.18;;;;;;;16.97;100.00;102572.63;7375277;19;20018;-75
2022/07/12 05:02:04;;;;;;;13.90;9.50;;;;;;;17.15;100.00;102570.25;7370872;19;20006;-75
2022/07/12 05:04:34;;;;;;;13.82;9.68;;;;;;;17.29;100.00;102563.38;7374198;19;20014;-75
2022/07/12 05:07:05;;;;;;;14.18;9.20;;;;;;;17.35;100.00;102565.22;7377948;19;20093;-75
2022/07/12 05:09:35;;;;;;;15.93;9.68;;;;;;;17.43;100.00;102571.50;7372350;19;20524;-76
2022/07/12 05:12:09;;;;;;;17.27;9.95;;;;;;;17.44;100.00;102567.97;7376337;19;20081;-75
2022/07/12 05:14:40;;;;;;;12.45;8.63;;;;;;;17.52;100.00;102573.38;7377194;19;20025;-75
2022/07/12 05:17:10;;;;;;;17.60;10.23;;;;;;;17.68;100.00;102580.66;7373174;19;20006;-75
2022/07/12 05:19:41;;;;;;;12.27;9.20;;;;;;;17.86;100.00;102570.25;7373980;19;20098;-75
2022/07/12 05:22:11;;;;;;;13.57;9.73;;;;;;;18.06;100.00;102589.03;7375543;19;20002;-76
2022/07/12 05:24:41;;;;;;;18.52;11.00;;;;;;;18.25;100.00;102590.09;7377550;19;20011;-81
2022/07/12 05:27:13;;;;;;;15.00;9.88;;;;;;;18.40;100.00;102587.59;7379840;19;20014;-81
2022/07/12 05:29:44;;;;;;;18.40;10.10;;;;;;;18.67;100.00;102583.41;7375255;19;20015;-81
2022/07/12 05:32:14;;;;;;;14.68;9.93;;;;;;;18.90;100.00;102587.97;7376394;19;20471;-80
2022/07/12 05:34:44;;;;;;;15.30;10.25;;;;;;;19.14;100.00;102584.56;7377112;19;20031;-80
2022/07/12 05:37:14;;;;;;;15.45;10.20;;;;;;;19.26;100.00;102581.09;7377162;19;20078;-79
2022/07/12 05:39:45;;;;;;;17.23;11.07;;;;;;;19.44;100.00;102588.28;7377662;19;20014;-81
2022/07/12 05:42:17;;;;;;;15.43;10.02;;;;;;;19.50;100.00;102588.31;7378229;19;20003;-81
2022/07/12 05:44:47;;;;;;;15.75;10.45;;;;;;;19.58;100.00;102594.56;7378456;19;20433;-79
2022/07/12 05:47:17;;;;;;;16.38;10.32;;;;;;;19.55;100.00;102589.25;7375584;19;20483;-79
2022/07/12 05:49:47;;;;;;;14.90;10.43;;;;;;;19.62;100.00;102596.38;7377859;19;20018;-81
2022/07/12 05:54:59;;;;;;;13.95;9.30;;;;;;;19.54;100.00;102592.78;7378532;19;20090;-78
2022/07/12 05:57:32;;;;;;;17.83;10.07;;;;;;;19.58;100.00;102594.56;7374360;19;20018;-79
2022/07/12 06:00:02;;;;;;;17.87;10.00;;;;;;;19.66;100.00;102591.94;7378129;19;20098;-79
2022/07/12 06:02:34;;;;;;;14.27;9.85;;;;;;;19.90;100.00;102590.22;7373552;19;20259;-79
2022/07/12 06:05:04;;;;;;;16.50;10.32;;;;;;;19.93;100.00;102592.88;7380165;19;20346;-78
2022/07/12 06:07:34;;;;;;;14.45;9.88;;;;;;;19.96;100.00;102593.78;7375691;19;20213;-79
2022/07/12 06:10:04;;;;;;;15.23;9.23;;;;;;;19.97;100.00;102588.47;7380394;19;20047;-79
2022/07/12 06:12:37;;;;;;;16.92;10.15;;;;;;;19.91;100.00;102584.00;7381713;19;20523;-79
2022/07/12 06:15:09;;;;;;;17.02;9.73;;;;;;;19.84;100.00;102598.19;7378674;19;20060;-79
2022/07/12 06:17:40;;;;;;;13.52;9.27;;;;;;;19.92;100.00;102593.78;7378794;19;20642;-79
2022/07/12 06:20:11;;;;;;;15.70;9.95;;;;;;;20.05;100.00;102601.78;7379725;19;20049;-80
2022/07/12 06:22:42;;;;;;;14.13;9.05;;;;;;;20.16;100.00;102598.25;7382024;19;20014;-79
2022/07/12 06:25:12;;;;;;;15.88;10.15;;;;;;;20.20;100.00;102596.50;7373956;19;20042;-80
2022/07/12 06:28:07;;;;;;;13.80;9.57;;;;;;;20.37;100.00;102592.06;7371349;19;20018;-80
2022/07/12 06:30:41;;;;;;;14.95;10.30;;;;;;;20.62;100.00;102602.75;7379634;19;20889;-80
2022/07/12 06:33:14;;;;;;;19.42;10.77;;;;;;;20.89;100.00;102602.72;7376221;19;20018;-79
2022/07/12 06:35:44;;;;;;;17.20;9.82;;;;;;;21.25;100.00;102601.78;7381208;19;20648;-78
2022/07/12 06:38:14;;;;;;;17.48;11.10;;;;;;;21.26;98.60;102605.34;7378034;19;20011;-80
2022/07/12 06:40:44;;;;;;;15.30;8.88;;;;;;;21.42;96.87;102601.72;7380612;19;20010;-80
2022/07/12 06:43:16;;;;;;;15.75;10.70;;;;;;;21.38;96.93;102607.97;7379367;19;20027;-80
2022/07/12 06:45:46;;;;;;;14.67;10.40;;;;;;;21.20;96.61;102611.53;7378750;19;20006;-78
2022/07/12 06:48:16;;;;;;;16.02;9.43;;;;;;;21.39;96.12;102617.75;7372671;19;20503;-80
2022/07/12 06:50:46;;;;;;;16.35;9.98;;;;;;;21.48;96.50;102628.38;7373774;19;20031;-79
2022/07/12 06:53:17;;;;;;;14.07;7.80;;;;;;;21.81;96.85;102622.03;7372626;19;20007;-79
2022/07/12 06:55:47;;;;;;;16.98;9.32;;;;;;;21.85;94.02;102616.63;7377708;19;20043;-79
2022/07/12 06:58:22;;;;;;;16.00;9.45;;;;;;;21.92;93.48;102616.59;7372804;19;20447;-79
2022/07/12 07:00:54;;;;;;;12.45;7.70;;;;;;;21.88;91.40;102613.94;7376082;19;20011;-78
2022/07/12 07:03:27;;;;;;;12.90;8.10;;;;;;;22.08;89.85;102619.19;7373787;19;20011;-79
2022/07/12 07:05:59;;;;;;;13.27;8.10;;;;;;;22.17;89.77;102620.91;7369099;19;20114;-79
2022/07/12 07:08:31;;;;;;;12.25;7.88;;;;;;;22.33;90.59;102608.34;7366256;19;20301;-80
2022/07/12 07:11:03;;;;;;;11.88;7.57;;;;;;;22.56;88.90;102603.69;7365619;19;20051;-79
2022/07/12 07:13:37;;;;;;;11.73;7.00;;;;;;;22.95;85.12;102607.78;7369927;19;20031;-78
2022/07/12 07:16:13;;;;;;;9.85;5.75;;;;;;;22.96;82.02;102608.69;7346539;19;20549;-80
2022/07/12 07:18:44;;;;;;;11.23;6.68;;;;;;;23.05;77.73;102609.47;7369161;19;20461;-80
2022/07/12 07:21:14;;;;;;;11.23;6.85;;;;;;;23.34;78.69;102602.91;7372159;19;20014;-81
2022/07/12 07:23:44;;;;;;;10.45;6.20;;;;;;;23.41;78.70;102608.16;7368375;19;20455;-80
2022/07/12 07:26:15;;;;;;;10.63;5.72;;;;;;;23.31;77.75;102605.63;7368969;19;20572;-81
2022/07/12 07:31:30;;;;;;;11.82;5.78;;;;;;;23.55;75.86;102608.03;7372804;19;20033;-79
2022/07/12 07:34:00;;;;;;;9.57;6.22;;;;;;;23.46;76.66;102603.66;7374067;19;20476;-79
2022/07/12 07:36:30;;;;;;;9.27;5.75;;;;;;;23.64;78.11;102605.25;7374322;19;20042;-79
2022/07/12 07:39:01;;;;;;;9.70;5.80;;;;;;;23.51;77.45;102603.59;7376090;19;20011;-80
2022/07/12 07:41:31;;;;;;;11.82;6.72;;;;;;;23.29;77.15;102597.59;7384397;19;20297;-79
2022/07/12 07:44:04;;;;;;;9.93;6.70;;;;;;;23.17;78.40;102603.09;7383723;19;20027;-79
2022/07/12 07:46:34;;;;;;;9.18;6.28;;;;;;;22.92;77.81;102605.16;7377222;19;20015;-78
2022/07/12 07:49:05;;;;;;;11.25;6.10;;;;;;;23.05;78.00;102606.78;7375270;19;21222;-77
2022/07/12 07:51:36;;;;;;;10.27;6.43;;;;;;;22.93;79.08;102606.91;7377432;19;20094;-78
2022/07/12 07:54:06;;;;;;;9.93;7.30;;;;;;;22.69;79.76;102604.47;7377387;19;20090;-80
2022/07/12 07:56:36;;;;;;;13.73;8.57;;;;;;;22.43;80.55;102607.38;7378059;19;20050;-75
2022/07/12 07:59:10;;;;;;;13.85;7.10;;;;;;;22.56;81.75;102608.16;7374478;19;20070;-75
2022/07/12 08:01:52;;;;;;;9.20;6.32;;;;;;;23.02;80.48;102606.81;7367500;19;20044;-78
2022/07/12 08:04:26;;;;;;;11.93;6.20;;;;;;;23.28;80.02;102622.59;7372784;19;20070;-80
2022/07/12 08:06:58;;;;;;;9.48;6.28;;;;;;;23.54;77.67;102603.59;7370132;19;20007;-81
2022/07/12 08:09:29;;;;;;;11.63;7.20;;;;;;;23.86;75.15;102604.94;7374799;19;20042;-79
2022/07/12 08:11:59;;;;;;;11.35;7.25;;;;;;;23.64;75.20;102621.31;7373494;19;20018;-80
2022/07/12 08:14:32;;;;;;;11.23;7.25;;;;;;;23.31;76.21;102624.34;7373412;19;20346;-80
2022/07/12 08:17:02;;;;;;;12.05;7.60;;;;;;;22.96;77.59;102624.72;7366853;19;20022;-79
2022/07/12 08:19:32;;;;;;;10.35;6.50;;;;;;;23.39;77.71;102626.03;7366471;19;20372;-80
2022/07/12 08:22:04;;;;;;;12.05;7.15;;;;;;;23.85;75.50;102613.91;7368183;19;20506;-82
2022/07/12 08:24:35;;;;;;;11.27;6.57;;;;;;;24.40;73.07;102613.97;7368508;19;20666;-80
2022/07/12 08:27:06;;;;;;;10.40;6.78;;;;;;;24.91;71.97;102614.88;7369594;19;20025;-80
2022/07/12 08:29:43;;;;;;;8.52;5.60;;;;;;;25.39;68.24;102614.84;7366527;19;20014;-79
2022/07/12 08:32:16;;;;;;;11.70;6.20;;;;;;;25.38;67.82;102607.69;7368244;19;20195;-79
2022/07/12 08:34:46;;;;;;;9.15;6.97;;;;;;;25.27;66.31;102607.91;7369918;19;20014;-81
2022/07/12 08:37:16;;;;;;;11.57;7.43;;;;;;;25.12;65.97;102610.00;7370322;19;20029;-81
2022/07/12 08:39:46;;;;;;;9.35;5.90;;;;;;;25.78;65.22;102607.75;7371230;19;20342;-81
2022/07/12 08:42:18;;;;;;;7.72;5.03;;;;;;;25.85;65.84;102605.81;7371803;19;20007;-80
2022/07/12 08:44:59;;;;;;;9.70;6.30;;;;;;;25.79;65.18;102605.97;7365836;19;20006;-82
2022/07/12 08:47:29;;;;;;;7.65;4.97;;;;;;;26.16;64.39;102612.22;7371936;19;20117;-82
2022/07/12 08:50:17;;;;;;;12.10;6.63;;;;;;;26.48;64.82;102610.59;7373744;19;20026;-81
2022/07/12 08:52:49;;;;;;;9.98;6.18;;;;;;;26.34;60.75;102603.75;7368175;19;20023;-81
2022/07/12 08:55:24;;;;;;;10.23;5.93;;;;;;;26.04;60.84;102604.44;7362104;19;20018;-81
2022/07/12 08:57:56;;;;;;;9.88;5.88;;;;;;;26.23;59.38;102605.78;7362943;19;20484;-80
2022/07/12 09:00:30;;;;;;;8.57;5.80;;;;;;;26.08;60.99;102606.16;7363905;19;20015;-81
2022/07/12 09:03:02;;;;;;;10.07;5.75;;;;;;;26.41;59.36;102598.22;7350540;19;20056;-79
2022/07/12 09:05:33;;;;;;;11.88;5.95;;;;;;;26.34;59.22;102595.69;7370314;19;21023;-79
2022/07/12 09:08:08;;;;;;;8.73;5.97;;;;;;;26.03;60.42;102608.94;7372960;19;20518;-80
2022/07/12 09:10:55;;;;;;;9.63;6.35;;;;;;;26.21;59.59;102601.38;7367702;19;20022;-79
2022/07/12 09:13:51;;;;;;;9.68;6.22;;;;;;;26.74;61.07;102605.44;7366004;19;20055;-78
2022/07/12 09:16:25;;;;;;;9.80;5.88;;;;;;;26.99;58.45;102608.38;7371400;19;20021;-78
2022/07/12 09:19:16;;;;;;;10.45;5.13;;;;;;;27.40;57.83;102617.09;7369375;19;20018;-80
2022/07/12 09:21:52;;;;;;;9.27;5.38;;;;;;;27.19;55.81;102618.56;7372174;19;20002;-80
2022/07/12 09:24:26;;;;;;;11.13;5.28;;;;;;;27.66;56.98;102609.16;7376293;19;20011;-79
2022/07/12 09:27:02;;;;;;;10.70;6.03;;;;;;;27.94;55.33;102603.78;7371019;19;20015;-77
2022/07/12 09:29:34;;;;;;;10.10;5.20;;;;;;;28.10;54.29;102605.03;7376662;19;20479;-78
2022/07/12 09:37:43;;;;;;;10.63;6.68;;;;;;;27.77;53.86;102592.66;7377705;19;20313;-77
2022/07/12 09:40:13;;;;;;;10.65;6.63;;;;;;;27.56;55.83;102591.47;7369336;19;20039;-78
2022/07/12 09:42:43;;;;;;;9.00;5.68;;;;;;;28.01;53.79;102594.56;7372307;19;20505;-76
2022/07/12 09:45:13;;;;;;;10.65;6.45;;;;;;;28.17;53.06;102592.25;7376083;19;20259;-77
2022/07/12 09:47:51;;;;;;;13.32;5.95;;;;;;;28.38;52.72;102596.06;7380706;19;20019;-75
2022/07/12 09:50:25;;;;;;;11.55;6.68;;;;;;;28.31;53.07;102593.59;7380826;19;20014;-75
2022/07/12 09:53:00;;;;;;;8.52;5.65;;;;;;;28.59;49.27;102590.84;7368828;19;20369;-75
2022/07/12 09:55:35;;;;;;;8.57;5.40;;;;;;;28.66;51.02;102588.81;7372467;19;20010;-77
2022/07/12 09:58:07;;;;;;;10.30;5.53;;;;;;;28.94;49.96;102594.16;7372251;19;20029;-76
2022/07/12 10:00:38;;;;;;;8.85;5.45;;;;;;;28.81;49.50;102590.09;7375074;19;21001;-75
2022/07/12 10:03:15;;;;;;;9.20;5.60;;;;;;;29.02;49.08;102596.56;7373210;19;20014;-76
2022/07/12 10:05:47;;;;;;;8.02;5.32;;;;;;;28.86;49.11;102609.75;7374672;19;20018;-74
2022/07/12 10:08:17;;;;;;;10.20;6.65;;;;;;;28.92;47.95;102605.00;7372762;19;20007;-75
2022/07/12 10:10:51;;;;;;;10.13;6.30;;;;;;;28.96;48.27;102597.69;7372420;19;20010;-76
2022/07/12 10:13:25;;;;;;;10.95;6.20;;;;;;;28.49;49.52;102599.28;7366469;19;20010;-74
2022/07/12 10:16:03;;;;;;;9.32;6.18;;;;;;;28.45;49.22;102598.53;7375856;19;20011;-74
2022/07/12 10:18:35;;;;;;;9.82;5.05;;;;;;;29.24;49.06;102602.91;7371319;19;20730;-74
2022/07/12 10:21:21;;;;;;;10.23;6.18;;;;;;;29.08;49.15;102617.97;7370630;19;20006;-74
2022/07/12 10:23:52;;;;;;;10.35;7.47;;;;;;;29.04;47.35;102621.72;7372613;19;20003;-76
2022/07/12 10:26:43;;;;;;;10.45;6.43;;;;;;;29.02;49.27;102626.28;7372607;19;20020;-81
2022/07/12 10:29:22;;;;;;;8.90;5.47;;;;;;;28.49;45.94;102610.09;7379447;19;20124;-80
2022/07/12 10:31:52;;;;;;;8.98;5.55;;;;;;;28.41;48.47;102612.16;7376324;19;20030;-82
2022/07/12 10:34:27;;;;;;;9.73;5.65;;;;;;;28.67;47.37;102611.28;7376666;19;20014;-75
2022/07/12 10:37:16;;;;;;;11.73;5.57;;;;;;;28.95;47.89;102609.41;7372539;19;20007;-76
2022/07/12 10:40:16;;;;;;;11.50;6.05;;;;;;;29.22;47.04;102610.19;7372768;19;20018;-76
2022/07/12 10:43:16;;;;;;;9.73;6.03;;;;;;;28.68;47.21;102607.66;7373612;19;20011;-77
2022/07/12 10:45:51;;;;;;;10.52;5.75;;;;;;;28.80;47.09;102608.09;7375143;19;20074;-76
2022/07/12 10:48:25;;;;;;;9.40;5.45;;;;;;;28.93;46.85;102611.28;7373140;19;20031;-75
2022/07/12 10:50:59;;;;;;;9.43;5.35;;;;;;;29.16;48.03;102610.44;7373774;19;20010;-75
2022/07/12 10:53:33;;;;;;;10.57;6.57;;;;;;;29.40;47.31;102620.31;7363588;19;20049;-75
2022/07/12 10:56:14;;;;;;;10.50;6.82;;;;;;;28.78;46.80;102617.19;7373258;19;20021;-77
2022/07/12 10:58:46;;;;;;;9.07;6.10;;;;;;;29.22;45.71;102604.81;7372306;19;20495;-77
2022/07/12 11:01:17;;;;;;;10.63;6.87;;;;;;;29.13;44.92;102603.31;7372156;19;20014;-77
2022/07/12 11:03:49;;;;;;;8.52;5.50;;;;;;;29.84;45.07;102597.03;7374089;19;20015;-77
2022/07/12 11:06:24;;;;;;;8.02;4.50;;;;;;;30.18;41.92;102591.13;7376707;19;20014;-77
2022/07/12 11:08:59;;;;;;;8.50;5.60;;;;;;;30.10;43.55;102592.41;7373405;19;20017;-78
2022/07/12 11:11:31;;;;;;;14.23;6.65;;;;;;;29.88;43.29;102597.78;7373842;19;20604;-75
2022/07/12 11:14:02;;;;;;;10.70;6.10;;;;;;;29.69;43.34;102599.44;7371483;19;20082;-74
2022/07/12 11:16:33;;;;;;;12.52;6.00;;;;;;;29.15;42.98;102600.56;7374418;19;20007;-77
2022/07/12 11:19:03;;;;;;;9.93;5.40;;;;;;;29.51;41.80;102593.81;7380419;19;20048;-76
2022/07/12 11:21:46;;;;;;;9.35;5.70;;;;;;;29.74;40.77;102595.63;7379523;19;20006;-76
2022/07/12 11:24:21;;;;;;;8.18;4.53;;;;;;;30.10;41.47;102593.28;7380086;19;20032;-77
2022/07/12 11:26:52;;;;;;;10.02;5.10;;;;;;;30.10;39.42;102593.28;7373370;19;20031;-77
2022/07/12 11:29:25;;;;;;;8.88;5.72;;;;;;;30.03;39.86;102586.38;7371628;19;20011;-78
2022/07/12 11:32:04;;;;;;;8.95;4.70;;;;;;;30.43;39.37;102592.81;7373581;19;20018;-77
2022/07/12 11:34:43;;;;;;;8.23;5.28;;;;;;;30.48;40.01;102580.84;7368723;19;20007;-77
2022/07/12 11:37:15;;;;;;;10.23;5.50;;;;;;;30.07;38.99;102579.91;7373296;19;20015;-76
2022/07/12 11:39:45;;;;;;;9.38;5.68;;;;;;;30.41;39.25;102573.03;7369604;19;20505;-77
2022/07/12 11:42:17;;;;;;;9.50;5.97;;;;;;;30.11;39.78;102581.53;7369756;19;20011;-78
2022/07/12 11:44:49;;;;;;;9.18;5.68;;;;;;;30.00;38.82;102578.38;7370583;19;20018;-77
2022/07/12 11:47:24;;;;;;;13.70;5.37;;;;;;;30.41;39.48;102581.16;7368298;19;20022;-76
2022/07/12 11:49:56;;;;;;;11.02;5.82;;;;;;;30.53;39.05;102575.22;7363135;19;20007;-78
2022/07/12 11:52:29;;;;;;;8.27;4.93;;;;;;;30.62;38.40;102580.28;7359831;19;20002;-76
2022/07/12 11:55:00;;;;;;;9.02;5.60;;;;;;;30.93;38.28;102578.94;7366291;19;20635;-78